sensor_id;sensor_type;location;lat;lon;timestamp;pressure;altitude;pressure_sealevel;temperature;humidity
8253;BME280;61313;48.396;10.008;2023-10-13T00:01:53;96382.31;;;17.82;60.34
8253;BME280;61313;48.396;10.008;2023-10-13T00:04:20;96380.91;;;17.89;59.60
8253;BME280;61313;48.396;10.008;2023-10-13T00:06:54;96382.38;;;17.80;59.79
8253;BME280;61313;48.396;10.008;2023-10-13T00:09:22;96384.69;;;17.61;60.29
8253;BME280;61313;48.396;10.008;2023-10-13T00:11:51;96375.97;;;17.59;60.55
8253;BME280;61313;48.396;10.008;2023-10-13T00:14:18;96381.28;;;17.59;60.43
8253;BME280;61313;48.396;10.008;2023-10-13T00:16:44;96376.81;;;17.72;60.07
8253;BME280;61313;48.396;10.008;2023-10-13T00:19:32;96374.69;;;17.64;60.31
8253;BME280;61313;48.396;10.008;2023-10-13T00:22:10;96376.09;;;17.57;60.55
8253;BME280;61313;48.396;10.008;2023-10-13T00:24:36;96376.16;;;17.81;59.88
8253;BME280;61313;48.396;10.008;2023-10-13T00:27:28;96374.66;;;17.77;59.65
8253;BME280;61313;48.396;10.008;2023-10-13T00:30:06;96382.94;;;17.35;60.87
8253;BME280;61313;48.396;10.008;2023-10-13T00:32:52;96382.94;;;17.35;60.98
8253;BME280;61313;48.396;10.008;2023-10-13T00:35:25;96373.56;;;17.55;60.48
8253;BME280;61313;48.396;10.008;2023-10-13T00:38:00;96379.00;;;17.41;60.54
8253;BME280;61313;48.396;10.008;2023-10-13T00:40:31;96372.66;;;17.31;60.75
8253;BME280;61313;48.396;10.008;2023-10-13T00:43:01;96374.72;;;17.51;60.33
8253;BME280;61313;48.396;10.008;2023-10-13T00:48:37;96374.06;;;17.61;59.78
8253;BME280;61313;48.396;10.008;2023-10-13T00:51:19;96370.97;;;17.30;60.17
8253;BME280;61313;48.396;10.008;2023-10-13T00:53:59;96376.97;;;17.58;59.96
8253;BME280;61313;48.396;10.008;2023-10-13T00:56:28;96370.94;;;17.67;59.12
8253;BME280;61313;48.396;10.008;2023-10-13T00:58:54;96377.63;;;17.48;59.86
8253;BME280;61313;48.396;10.008;2023-10-13T01:01:23;96374.06;;;17.61;59.27
8253;BME280;61313;48.396;10.008;2023-10-13T01:03:55;96371.97;;;17.53;59.40
8253;BME280;61313;48.396;10.008;2023-10-13T01:06:24;96374.50;;;17.54;59.41
8253;BME280;61313;48.396;10.008;2023-10-13T01:09:03;96365.13;;;17.62;58.92
8253;BME280;61313;48.396;10.008;2023-10-13T01:11:43;96378.56;;;17.47;59.52
8253;BME280;61313;48.396;10.008;2023-10-13T01:14:13;96372.81;;;17.53;58.80
8253;BME280;61313;48.396;10.008;2023-10-13T01:16:42;96368.44;;;17.65;58.55
8253;BME280;61313;48.396;10.008;2023-10-13T01:19:15;96364.47;;;17.71;58.52
8253;BME280;61313;48.396;10.008;2023-10-13T01:21:47;96352.34;;;17.55;58.99
8253;BME280;61313;48.396;10.008;2023-10-13T01:24:13;96350.53;;;17.56;58.96
8253;BME280;61313;48.396;10.008;2023-10-13T01:26:44;96356.31;;;17.37;59.42
8253;BME280;61313;48.396;10.008;2023-10-13T01:29:10;96346.28;;;17.53;58.67
8253;BME280;61313;48.396;10.008;2023-10-13T01:31:39;96349.44;;;17.59;58.53
8253;BME280;61313;48.396;10.008;2023-10-13T01:34:18;96349.00;;;17.28;59.70
8253;BME280;61313;48.396;10.008;2023-10-13T01:36:54;96352.34;;;17.06;59.97
8253;BME280;61313;48.396;10.008;2023-10-13T01:39:24;96350.41;;;17.21;59.68
8253;BME280;61313;48.396;10.008;2023-10-13T01:41:54;96355.06;;;17.30;59.41
8253;BME280;61313;48.396;10.008;2023-10-13T01:44:26;96351.88;;;17.25;59.07
8253;BME280;61313;48.396;10.008;2023-10-13T01:46:54;96351.94;;;16.99;59.55
8253;BME280;61313;48.396;10.008;2023-10-13T01:49:19;96357.09;;;17.13;59.68
8253;BME280;61313;48.396;10.008;2023-10-13T01:51:48;96364.34;;;16.99;59.90
8253;BME280;61313;48.396;10.008;2023-10-13T01:54:13;96351.06;;;16.73;60.74
8253;BME280;61313;48.396;10.008;2023-10-13T01:56:41;96354.03;;;17.07;60.34
8253;BME280;61313;48.396;10.008;2023-10-13T01:59:12;96354.56;;;16.86;60.44
8253;BME280;61313;48.396;10.008;2023-10-13T02:01:38;96350.03;;;17.01;59.97
8253;BME280;61313;48.396;10.008;2023-10-13T02:04:05;96356.25;;;17.00;59.95
8253;BME280;61313;48.396;10.008;2023-10-13T02:06:33;96352.47;;;16.91;59.84
8253;BME280;61313;48.396;10.008;2023-10-13T02:09:02;96351.09;;;16.99;59.75
8253;BME280;61313;48.396;10.008;2023-10-13T02:11:35;96347.03;;;17.06;59.49
8253;BME280;61313;48.396;10.008;2023-10-13T02:14:02;96352.53;;;17.16;58.48
8253;BME280;61313;48.396;10.008;2023-10-13T02:16:28;96346.59;;;17.12;58.27
8253;BME280;61313;48.396;10.008;2023-10-13T02:18:54;96349.75;;;17.17;58.20
8253;BME280;61313;48.396;10.008;2023-10-13T02:21:19;96341.16;;;17.26;57.90
8253;BME280;61313;48.396;10.008;2023-10-13T02:23:45;96342.03;;;17.14;58.86
8253;BME280;61313;48.396;10.008;2023-10-13T02:26:13;96351.69;;;17.15;58.62
8253;BME280;61313;48.396;10.008;2023-10-13T02:28:57;96348.72;;;17.20;57.84
8253;BME280;61313;48.396;10.008;2023-10-13T02:31:23;96350.81;;;17.14;57.88
8253;BME280;61313;48.396;10.008;2023-10-13T02:33:49;96351.25;;;17.21;57.74
8253;BME280;61313;48.396;10.008;2023-10-13T02:36:15;96341.94;;;17.16;57.89
8253;BME280;61313;48.396;10.008;2023-10-13T02:38:48;96340.63;;;17.21;57.57
8253;BME280;61313;48.396;10.008;2023-10-13T02:41:17;96338.22;;;17.18;57.39
8253;BME280;61313;48.396;10.008;2023-10-13T02:43:51;96346.16;;;17.18;57.54
8253;BME280;61313;48.396;10.008;2023-10-13T02:46:17;96340.22;;;17.14;57.75
8253;BME280;61313;48.396;10.008;2023-10-13T02:48:42;96335.78;;;17.15;58.00
8253;BME280;61313;48.396;10.008;2023-10-13T02:51:12;96335.78;;;17.15;57.87
8253;BME280;61313;48.396;10.008;2023-10-13T02:53:46;96329.44;;;17.05;58.49
8253;BME280;61313;48.396;10.008;2023-10-13T02:56:13;96322.34;;;16.92;58.62
8253;BME280;61313;48.396;10.008;2023-10-13T02:58:40;96324.56;;;16.99;58.65
8253;BME280;61313;48.396;10.008;2023-10-13T03:01:09;96315.75;;;16.98;59.04
8253;BME280;61313;48.396;10.008;2023-10-13T03:03:54;96320.13;;;16.99;58.98
8253;BME280;61313;48.396;10.008;2023-10-13T03:06:22;96321.50;;;16.79;59.23
8253;BME280;61313;48.396;10.008;2023-10-13T03:08:58;96322.44;;;16.78;59.55
8253;BME280;61313;48.396;10.008;2023-10-13T03:11:26;96318.53;;;16.84;59.26
8253;BME280;61313;48.396;10.008;2023-10-13T03:13:59;96316.09;;;16.81;59.33
8253;BME280;61313;48.396;10.008;2023-10-13T03:16:24;96320.09;;;16.73;60.01
8253;BME280;61313;48.396;10.008;2023-10-13T03:18:50;96324.56;;;16.60;60.06
8253;BME280;61313;48.396;10.008;2023-10-13T03:21:22;96326.47;;;16.58;60.42
8253;BME280;61313;48.396;10.008;2023-10-13T03:23:56;96330.72;;;16.61;60.28
8253;BME280;61313;48.396;10.008;2023-10-13T03:26:22;96322.88;;;16.59;59.83
8253;BME280;61313;48.396;10.008;2023-10-13T03:28:47;96318.50;;;16.58;60.42
8253;BME280;61313;48.396;10.008;2023-10-13T03:31:19;96322.00;;;16.46;60.47
8253;BME280;61313;48.396;10.008;2023-10-13T03:33:45;96321.47;;;16.41;60.63
8253;BME280;61313;48.396;10.008;2023-10-13T03:36:13;96312.03;;;16.37;61.10
8253;BME280;61313;48.396;10.008;2023-10-13T03:38:58;96319.69;;;16.28;61.01
8253;BME280;61313;48.396;10.008;2023-10-13T03:41:23;96320.22;;;16.34;60.68
8253;BME280;61313;48.396;10.008;2023-10-13T03:43:55;96328.50;;;16.42;60.98
8253;BME280;61313;48.396;10.008;2023-10-13T03:46:32;96318.84;;;16.41;61.48
8253;BME280;61313;48.396;10.008;2023-10-13T03:48:58;96324.31;;;16.25;61.31
8253;BME280;61313;48.396;10.008;2023-10-13T03:51:27;96316.63;;;16.35;60.80
8253;BME280;61313;48.396;10.008;2023-10-13T03:53:56;96318.22;;;16.37;60.92
8253;BME280;61313;48.396;10.008;2023-10-13T03:56:24;96311.72;;;16.41;61.01
8253;BME280;61313;48.396;10.008;2023-10-13T03:58:57;96300.31;;;16.28;61.05
8253;BME280;61313;48.396;10.008;2023-10-13T04:01:25;96304.72;;;16.27;61.25
8253;BME280;61313;48.396;10.008;2023-10-13T04:04:12;96315.63;;;16.10;61.95
8253;BME280;61313;48.396;10.008;2023-10-13T04:06:38;96312.66;;;16.15;61.69
8253;BME280;61313;48.396;10.008;2023-10-13T04:09:16;96312.22;;;16.08;61.94
8253;BME280;61313;48.396;10.008;2023-10-13T04:12:06;96312.97;;;16.10;61.76
8253;BME280;61313;48.396;10.008;2023-10-13T04:14:46;96301.84;;;16.05;61.92
8253;BME280;61313;48.396;10.008;2023-10-13T04:17:18;96296.03;;;16.00;62.27
8253;BME280;61313;48.396;10.008;2023-10-13T04:19:54;96313.19;;;16.07;62.09
8253;BME280;61313;48.396;10.008;2023-10-13T04:22:41;96315.84;;;16.07;61.75
8253;BME280;61313;48.396;10.008;2023-10-13T04:25:21;96306.31;;;16.04;62.41
8253;BME280;61313;48.396;10.008;2023-10-13T04:28:14;96309.56;;;16.08;62.21
8253;BME280;61313;48.396;10.008;2023-10-13T04:30:51;96306.06;;;15.95;62.16
8253;BME280;61313;48.396;10.008;2023-10-13T04:36:13;96307.00;;;15.94;62.17
8253;BME280;61313;48.396;10.008;2023-10-13T04:39:01;96302.25;;;15.99;62.48
8253;BME280;61313;48.396;10.008;2023-10-13T04:41:37;96305.31;;;15.93;62.31
8253;BME280;61313;48.396;10.008;2023-10-13T04:44:05;96304.50;;;15.92;62.43
8253;BME280;61313;48.396;10.008;2023-10-13T04:46:52;96298.63;;;15.87;62.77
8253;BME280;61313;48.396;10.008;2023-10-13T04:49:25;96302.47;;;15.96;62.13
8253;BME280;61313;48.396;10.008;2023-10-13T04:51:58;96305.13;;;15.96;62.38
8253;BME280;61313;48.396;10.008;2023-10-13T04:54:40;96299.38;;;15.89;62.06
8253;BME280;61313;48.396;10.008;2023-10-13T04:57:15;96298.84;;;15.97;62.18
8253;BME280;61313;48.396;10.008;2023-10-13T05:00:01;96301.69;;;15.81;62.63
8253;BME280;61313;48.396;10.008;2023-10-13T05:02:38;96300.09;;;15.78;62.57
8253;BME280;61313;48.396;10.008;2023-10-13T05:05:12;96293.09;;;15.77;62.78
8253;BME280;61313;48.396;10.008;2023-10-13T05:07:46;96294.81;;;15.78;62.62
8253;BME280;61313;48.396;10.008;2023-10-13T05:10:47;96292.03;;;15.80;62.84
8253;BME280;61313;48.396;10.008;2023-10-13T05:13:31;96285.81;;;15.81;62.76
8253;BME280;61313;48.396;10.008;2023-10-13T05:16:15;96292.72;;;15.83;62.52
8253;BME280;61313;48.396;10.008;2023-10-13T05:18:59;96295.13;;;15.74;62.96
8253;BME280;61313;48.396;10.008;2023-10-13T05:21:43;96284.63;;;15.72;62.68
8253;BME280;61313;48.396;10.008;2023-10-13T05:24:31;96289.53;;;15.78;62.16
8253;BME280;61313;48.396;10.008;2023-10-13T05:27:15;96289.69;;;15.75;62.30
8253;BME280;61313;48.396;10.008;2023-10-13T05:29:59;96291.66;;;15.86;62.34
8253;BME280;61313;48.396;10.008;2023-10-13T05:32:43;96290.47;;;15.77;62.52
8253;BME280;61313;48.396;10.008;2023-10-13T05:35:27;96294.69;;;15.80;62.21
8253;BME280;61313;48.396;10.008;2023-10-13T05:38:11;96292.34;;;15.75;62.33
8253;BME280;61313;48.396;10.008;2023-10-13T05:40:59;96296.50;;;15.79;62.44
8253;BME280;61313;48.396;10.008;2023-10-13T05:43:43;96291.56;;;15.87;62.02
8253;BME280;61313;48.396;10.008;2023-10-13T05:46:32;96295.31;;;16.62;64.47
8253;BME280;61313;48.396;10.008;2023-10-13T05:49:21;96293.38;;;16.77;61.50
8253;BME280;61313;48.396;10.008;2023-10-13T05:52:05;96304.84;;;16.39;60.46
8253;BME280;61313;48.396;10.008;2023-10-13T05:54:44;96303.47;;;16.33;60.39
8253;BME280;61313;48.396;10.008;2023-10-13T05:57:28;96297.22;;;16.60;59.63
8253;BME280;61313;48.396;10.008;2023-10-13T06:00:13;96301.16;;;16.80;58.99
8253;BME280;61313;48.396;10.008;2023-10-13T06:02:57;96304.22;;;16.99;58.27
8253;BME280;61313;48.396;10.008;2023-10-13T06:05:41;96302.63;;;17.33;57.29
8253;BME280;61313;48.396;10.008;2023-10-13T06:08:25;96304.06;;;17.74;56.06
8253;BME280;61313;48.396;10.008;2023-10-13T06:11:09;96299.00;;;18.07;54.88
8253;BME280;61313;48.396;10.008;2023-10-13T06:13:53;96291.53;;;18.01;55.00
8253;BME280;61313;48.396;10.008;2023-10-13T06:16:37;96293.81;;;18.40;53.86
8253;BME280;61313;48.396;10.008;2023-10-13T06:19:20;96291.63;;;18.68;52.96
8253;BME280;61313;48.396;10.008;2023-10-13T06:22:04;96295.91;;;19.16;51.58
8253;BME280;61313;48.396;10.008;2023-10-13T06:24:49;96294.47;;;18.89;52.06
8253;BME280;61313;48.396;10.008;2023-10-13T06:27:32;96283.56;;;19.03;51.75
8253;BME280;61313;48.396;10.008;2023-10-13T06:30:16;96291.81;;;19.78;49.85
8253;BME280;61313;48.396;10.008;2023-10-13T06:32:42;96293.13;;;20.04;48.85
8253;BME280;61313;48.396;10.008;2023-10-13T06:35:08;96290.19;;;20.07;48.83
8253;BME280;61313;48.396;10.008;2023-10-13T06:37:44;96283.81;;;19.78;49.50
8253;BME280;61313;48.396;10.008;2023-10-13T06:40:10;96281.19;;;19.99;48.76
8253;BME280;61313;48.396;10.008;2023-10-13T06:42:52;96274.63;;;20.66;47.38
8253;BME280;61313;48.396;10.008;2023-10-13T06:45:18;96280.72;;;21.68;44.98
8253;BME280;61313;48.396;10.008;2023-10-13T06:47:44;96275.81;;;22.32;42.98
8253;BME280;61313;48.396;10.008;2023-10-13T06:50:11;96278.47;;;22.98;41.55
8253;BME280;61313;48.396;10.008;2023-10-13T06:52:50;96278.06;;;23.31;40.98
8253;BME280;61313;48.396;10.008;2023-10-13T06:55:16;96272.28;;;23.99;39.55
8253;BME280;61313;48.396;10.008;2023-10-13T06:57:56;96281.06;;;24.27;38.82
8253;BME280;61313;48.396;10.008;2023-10-13T07:00:28;96286.34;;;23.83;39.81
8253;BME280;61313;48.396;10.008;2023-10-13T07:03:04;96283.75;;;24.27;38.87
8253;BME280;61313;48.396;10.008;2023-10-13T07:05:43;96277.28;;;25.16;37.10
8253;BME280;61313;48.396;10.008;2023-10-13T07:08:10;96281.28;;;25.46;36.28
8253;BME280;61313;48.396;10.008;2023-10-13T07:10:47;96282.84;;;25.65;35.71
8253;BME280;61313;48.396;10.008;2023-10-13T07:13:31;96278.94;;;25.94;35.33
8253;BME280;61313;48.396;10.008;2023-10-13T07:15:57;96282.66;;;26.26;34.48
8253;BME280;61313;48.396;10.008;2023-10-13T07:18:30;96278.94;;;26.51;33.71
8253;BME280;61313;48.396;10.008;2023-10-13T07:21:04;96278.50;;;27.20;32.60
8253;BME280;61313;48.396;10.008;2023-10-13T07:23:38;96285.13;;;26.93;33.35
8253;BME280;61313;48.396;10.008;2023-10-13T07:26:05;96285.06;;;27.26;32.52
8253;BME280;61313;48.396;10.008;2023-10-13T07:28:34;96288.13;;;27.54;32.09
8253;BME280;61313;48.396;10.008;2023-10-13T07:31:04;96292.91;;;27.75;31.65
8253;BME280;61313;48.396;10.008;2023-10-13T07:33:29;96296.59;;;27.42;32.14
8253;BME280;61313;48.396;10.008;2023-10-13T07:36:01;96291.34;;;27.49;32.20
8253;BME280;61313;48.396;10.008;2023-10-13T07:38:36;96287.09;;;27.15;32.81
8253;BME280;61313;48.396;10.008;2023-10-13T07:41:03;96293.50;;;27.06;32.78
8253;BME280;61313;48.396;10.008;2023-10-13T07:43:35;96288.47;;;27.03;32.86
8253;BME280;61313;48.396;10.008;2023-10-13T07:46:03;96287.84;;;26.85;33.37
8253;BME280;61313;48.396;10.008;2023-10-13T07:48:38;96296.78;;;26.69;33.51
8253;BME280;61313;48.396;10.008;2023-10-13T07:51:07;96287.19;;;26.74;33.30
8253;BME280;61313;48.396;10.008;2023-10-13T07:53:42;96297.94;;;26.50;33.70
8253;BME280;61313;48.396;10.008;2023-10-13T07:56:09;96291.59;;;25.67;35.11
8253;BME280;61313;48.396;10.008;2023-10-13T07:58:39;96286.94;;;25.86;34.79
8253;BME280;61313;48.396;10.008;2023-10-13T08:01:23;96295.88;;;25.86;34.75
8253;BME280;61313;48.396;10.008;2023-10-13T08:03:50;96282.44;;;26.03;34.40
8253;BME280;61313;48.396;10.008;2023-10-13T08:06:29;96296.81;;;25.69;35.18
8253;BME280;61313;48.396;10.008;2023-10-13T08:08:55;96287.03;;;25.51;35.42
8253;BME280;61313;48.396;10.008;2023-10-13T08:11:23;96291.84;;;25.05;36.18
8253;BME280;61313;48.396;10.008;2023-10-13T08:13:58;96287.09;;;25.68;34.99
8253;BME280;61313;48.396;10.008;2023-10-13T08:16:37;96282.69;;;25.59;34.84
8253;BME280;61313;48.396;10.008;2023-10-13T08:19:22;96289.78;;;25.84;34.25
8253;BME280;61313;48.396;10.008;2023-10-13T08:21:53;96284.66;;;26.15;33.94
8253;BME280;61313;48.396;10.008;2023-10-13T08:24:39;96285.31;;;25.42;34.65
8253;BME280;61313;48.396;10.008;2023-10-13T08:27:06;96284.22;;;25.69;34.37
8253;BME280;61313;48.396;10.008;2023-10-13T08:29:50;96273.72;;;26.01;33.70
8253;BME280;61313;48.396;10.008;2023-10-13T08:32:27;96269.69;;;26.05;33.33
8253;BME280;61313;48.396;10.008;2023-10-13T08:34:57;96274.00;;;25.81;33.79
8253;BME280;61313;48.396;10.008;2023-10-13T08:37:24;96278.03;;;25.85;33.42
8253;BME280;61313;48.396;10.008;2023-10-13T08:39:56;96272.03;;;26.08;33.21
8253;BME280;61313;48.396;10.008;2023-10-13T08:42:28;96266.66;;;26.08;33.00
8253;BME280;61313;48.396;10.008;2023-10-13T08:45:14;96266.34;;;26.19;32.87
8253;BME280;61313;48.396;10.008;2023-10-13T08:48:07;96261.94;;;25.93;32.87
8253;BME280;61313;48.396;10.008;2023-10-13T08:50:36;96265.75;;;25.74;32.55
8253;BME280;61313;48.396;10.008;2023-10-13T08:53:32;96260.31;;;25.50;33.26
8253;BME280;61313;48.396;10.008;2023-10-13T08:56:11;96259.53;;;25.66;33.48
8253;BME280;61313;48.396;10.008;2023-10-13T08:58:41;96265.31;;;25.37;33.55
8253;BME280;61313;48.396;10.008;2023-10-13T09:01:38;96267.25;;;25.69;38.20
8253;BME280;61313;48.396;10.008;2023-10-13T09:04:22;96260.25;;;26.01;34.86
8253;BME280;61313;48.396;10.008;2023-10-13T09:06:51;96253.22;;;26.24;34.34
8253;BME280;61313;48.396;10.008;2023-10-13T09:12:29;96247.81;;;25.91;32.28
8253;BME280;61313;48.396;10.008;2023-10-13T09:14:59;96241.31;;;25.35;35.32
8253;BME280;61313;48.396;10.008;2023-10-13T09:17:31;96245.81;;;25.26;36.48
8253;BME280;61313;48.396;10.008;2023-10-13T09:22:46;96256.09;;;25.05;38.24
8253;BME280;61313;48.396;10.008;2023-10-13T09:25:39;96240.72;;;25.66;35.92
8253;BME280;61313;48.396;10.008;2023-10-13T09:28:28;96250.56;;;25.06;35.60
8253;BME280;61313;48.396;10.008;2023-10-13T09:30:54;96240.34;;;25.44;36.91
8253;BME280;61313;48.396;10.008;2023-10-13T09:33:25;96230.66;;;25.76;33.75
8253;BME280;61313;48.396;10.008;2023-10-13T09:36:10;96228.56;;;25.37;35.77
8253;BME280;61313;48.396;10.008;2023-10-13T09:38:38;96224.97;;;25.87;36.43
8253;BME280;61313;48.396;10.008;2023-10-13T09:41:07;96223.63;;;26.00;35.24
8253;BME280;61313;48.396;10.008;2023-10-13T09:43:51;96221.81;;;26.08;34.63
8253;BME280;61313;48.396;10.008;2023-10-13T09:46:21;96224.31;;;26.10;34.38
8253;BME280;61313;48.396;10.008;2023-10-13T09:48:57;96213.56;;;26.18;34.22
8253;BME280;61313;48.396;10.008;2023-10-13T09:51:40;96215.56;;;26.16;33.35
8253;BME280;61313;48.396;10.008;2023-10-13T09:54:26;96213.88;;;26.15;33.63
8253;BME280;61313;48.396;10.008;2023-10-13T09:57:00;96219.63;;;26.04;34.02
8253;BME280;61313;48.396;10.008;2023-10-13T09:59:48;96217.59;;;25.89;34.84
8253;BME280;61313;48.396;10.008;2023-10-13T10:02:18;96216.72;;;25.89;33.51
8253;BME280;61313;48.396;10.008;2023-10-13T10:04:56;96217.09;;;25.94;34.47
8253;BME280;61313;48.396;10.008;2023-10-13T10:07:38;96204.75;;;25.59;33.87
8253;BME280;61313;48.396;10.008;2023-10-13T10:10:05;96199.25;;;25.85;33.88
8253;BME280;61313;48.396;10.008;2023-10-13T10:12:44;96204.66;;;26.01;34.03
8253;BME280;61313;48.396;10.008;2023-10-13T10:15:35;96201.47;;;26.06;33.73
8253;BME280;61313;48.396;10.008;2023-10-13T10:18:01;96199.78;;;25.88;34.13
8253;BME280;61313;48.396;10.008;2023-10-13T10:22:59;96192.16;;;25.84;35.11
8253;BME280;61313;48.396;10.008;2023-10-13T10:25:29;96187.34;;;26.04;34.22
8253;BME280;61313;48.396;10.008;2023-10-13T10:28:01;96192.38;;;26.23;33.60
8253;BME280;61313;48.396;10.008;2023-10-13T10:30:32;96178.44;;;26.11;33.80
8253;BME280;61313;48.396;10.008;2023-10-13T10:33:00;96171.38;;;26.10;32.98
8253;BME280;61313;48.396;10.008;2023-10-13T10:35:27;96174.69;;;26.29;34.25
8253;BME280;61313;48.396;10.008;2023-10-13T10:38:10;96170.19;;;25.80;34.00
8253;BME280;61313;48.396;10.008;2023-10-13T10:40:58;96173.53;;;25.82;34.00
8253;BME280;61313;48.396;10.008;2023-10-13T10:43:25;96177.44;;;25.88;34.10
8253;BME280;61313;48.396;10.008;2023-10-13T10:46:01;96170.50;;;25.69;34.73
8253;BME280;61313;48.396;10.008;2023-10-13T10:48:38;96168.78;;;25.43;35.56
8253;BME280;61313;48.396;10.008;2023-10-13T10:51:29;96162.06;;;25.39;34.53
8253;BME280;61313;48.396;10.008;2023-10-13T10:53:57;96157.25;;;25.75;34.24
8253;BME280;61313;48.396;10.008;2023-10-13T10:56:38;96151.72;;;26.02;33.69
8253;BME280;61313;48.396;10.008;2023-10-13T10:59:06;96146.81;;;26.05;34.18
8253;BME280;61313;48.396;10.008;2023-10-13T11:01:45;96145.28;;;25.53;33.74
8253;BME280;61313;48.396;10.008;2023-10-13T11:04:17;96139.91;;;25.45;33.99
8253;BME280;61313;48.396;10.008;2023-10-13T11:06:50;96134.03;;;25.33;33.76
8253;BME280;61313;48.396;10.008;2023-10-13T11:09:32;96125.63;;;25.28;34.21
8253;BME280;61313;48.396;10.008;2023-10-13T11:12:16;96120.25;;;25.37;33.99
8253;BME280;61313;48.396;10.008;2023-10-13T11:15:07;96112.22;;;25.45;34.17
8253;BME280;61313;48.396;10.008;2023-10-13T11:17:48;96104.47;;;25.74;33.13
8253;BME280;61313;48.396;10.008;2023-10-13T11:20:18;96102.63;;;25.91;32.59
8253;BME280;61313;48.396;10.008;2023-10-13T11:22:51;96105.16;;;25.93;32.94
8253;BME280;61313;48.396;10.008;2023-10-13T11:25:29;96092.91;;;25.90;32.46
8253;BME280;61313;48.396;10.008;2023-10-13T11:28:15;96094.56;;;26.00;32.60
8253;BME280;61313;48.396;10.008;2023-10-13T11:30:53;96089.34;;;26.06;32.31
8253;BME280;61313;48.396;10.008;2023-10-13T11:33:24;96090.16;;;26.23;32.15
8253;BME280;61313;48.396;10.008;2023-10-13T11:35:51;96084.94;;;26.30;31.48
8253;BME280;61313;48.396;10.008;2023-10-13T11:38:20;96073.66;;;26.26;32.28
8253;BME280;61313;48.396;10.008;2023-10-13T11:40:59;96072.47;;;26.37;31.84
8253;BME280;61313;48.396;10.008;2023-10-13T11:43:38;96070.44;;;26.39;31.32
8253;BME280;61313;48.396;10.008;2023-10-13T11:46:26;96063.34;;;26.46;30.37
8253;BME280;61313;48.396;10.008;2023-10-13T11:49:19;96069.41;;;26.40;30.41
8253;BME280;61313;48.396;10.008;2023-10-13T11:51:50;96071.09;;;26.41;30.72
8253;BME280;61313;48.396;10.008;2023-10-13T11:54:19;96057.00;;;26.31;30.92
8253;BME280;61313;48.396;10.008;2023-10-13T11:56:47;96051.66;;;26.23;30.97
8253;BME280;61313;48.396;10.008;2023-10-13T11:59:13;96056.03;;;26.24;29.47
8253;BME280;61313;48.396;10.008;2023-10-13T12:01:50;96049.81;;;26.15;28.99
8253;BME280;61313;48.396;10.008;2023-10-13T12:04:35;96045.47;;;26.14;29.35
8253;BME280;61313;48.396;10.008;2023-10-13T12:07:17;96037.03;;;26.17;29.71
8253;BME280;61313;48.396;10.008;2023-10-13T12:09:48;96043.75;;;26.21;29.52
8253;BME280;61313;48.396;10.008;2023-10-13T12:12:20;96042.78;;;26.14;29.10
8253;BME280;61313;48.396;10.008;2023-10-13T12:14:46;96029.63;;;26.19;29.49
8253;BME280;61313;48.396;10.008;2023-10-13T12:17:18;96032.78;;;26.31;29.28
8253;BME280;61313;48.396;10.008;2023-10-13T12:19:52;96023.38;;;26.35;29.26
8253;BME280;61313;48.396;10.008;2023-10-13T12:22:17;96009.09;;;26.34;29.29
8253;BME280;61313;48.396;10.008;2023-10-13T12:24:50;96014.78;;;26.31;28.67
8253;BME280;61313;48.396;10.008;2023-10-13T12:27:18;96012.09;;;26.39;29.07
8253;BME280;61313;48.396;10.008;2023-10-13T12:29:53;96011.72;;;26.43;28.94
8253;BME280;61313;48.396;10.008;2023-10-13T12:32:21;96001.63;;;26.45;28.42
8253;BME280;61313;48.396;10.008;2023-10-13T12:34:56;96001.69;;;26.36;28.63
8253;BME280;61313;48.396;10.008;2023-10-13T12:37:31;95993.25;;;26.39;28.04
8253;BME280;61313;48.396;10.008;2023-10-13T12:40:13;95983.84;;;26.35;27.95
8253;BME280;61313;48.396;10.008;2023-10-13T12:42:57;95984.19;;;26.32;26.97
8253;BME280;61313;48.396;10.008;2023-10-13T12:45:46;95971.44;;;26.26;26.95
8253;BME280;61313;48.396;10.008;2023-10-13T12:48:31;95973.31;;;26.26;27.02
8253;BME280;61313;48.396;10.008;2023-10-13T12:51:15;95971.81;;;26.23;27.23
8253;BME280;61313;48.396;10.008;2023-10-13T12:53:56;95973.47;;;26.24;27.27
8253;BME280;61313;48.396;10.008;2023-10-13T12:56:30;95966.78;;;26.20;27.34
8253;BME280;61313;48.396;10.008;2023-10-13T12:58:55;95958.03;;;26.18;26.98
8253;BME280;61313;48.396;10.008;2023-10-13T13:01:22;95952.47;;;26.19;27.46
8253;BME280;61313;48.396;10.008;2023-10-13T13:03:48;95956.72;;;26.14;26.53
8253;BME280;61313;48.396;10.008;2023-10-13T13:06:18;95949.66;;;26.13;26.74
8253;BME280;61313;48.396;10.008;2023-10-13T13:08:53;95943.78;;;26.09;27.39
8253;BME280;61313;48.396;10.008;2023-10-13T13:11:19;95949.53;;;26.06;26.95
8253;BME280;61313;48.396;10.008;2023-10-13T13:13:44;95954.06;;;26.06;27.06
8253;BME280;61313;48.396;10.008;2023-10-13T13:16:17;95947.72;;;25.98;26.84
8253;BME280;61313;48.396;10.008;2023-10-13T13:18:47;95944.16;;;25.98;27.08
8253;BME280;61313;48.396;10.008;2023-10-13T13:21:12;95935.13;;;25.91;27.03
8253;BME280;61313;48.396;10.008;2023-10-13T13:23:47;95937.81;;;25.91;27.33
8253;BME280;61313;48.396;10.008;2023-10-13T13:26:14;95927.91;;;25.83;27.75
8253;BME280;61313;48.396;10.008;2023-10-13T13:28:46;95924.88;;;25.94;27.41
8253;BME280;61313;48.396;10.008;2023-10-13T13:31:19;95926.38;;;25.89;26.95
8253;BME280;61313;48.396;10.008;2023-10-13T13:33:50;95921.50;;;25.84;26.71
8253;BME280;61313;48.396;10.008;2023-10-13T13:36:16;95920.19;;;25.80;27.32
8253;BME280;61313;48.396;10.008;2023-10-13T13:38:42;95920.72;;;25.75;26.82
8253;BME280;61313;48.396;10.008;2023-10-13T13:41:14;95915.16;;;25.77;27.10
8253;BME280;61313;48.396;10.008;2023-10-13T13:43:46;95913.16;;;25.71;26.89
8253;BME280;61313;48.396;10.008;2023-10-13T13:46:16;95910.47;;;25.71;27.04
8253;BME280;61313;48.396;10.008;2023-10-13T13:48:42;95906.09;;;25.70;26.93
8253;BME280;61313;48.396;10.008;2023-10-13T13:51:08;95902.25;;;25.64;26.93
8253;BME280;61313;48.396;10.008;2023-10-13T13:53:41;95906.13;;;25.62;27.53